createdAt,value
2022-09-04T00:03:50.972Z,78.30
2022-09-04T00:06:38.273Z,77.82
2022-09-04T00:09:18.529Z,77.99
2022-09-04T00:11:53.253Z,77.87
2022-09-04T00:14:40.163Z,77.67
2022-09-04T00:17:16.503Z,78.05
2022-09-04T00:19:50.934Z,77.95
2022-09-04T00:22:27.380Z,77.63
2022-09-04T00:25:09.486Z,77.55
2022-09-04T00:27:45.197Z,77.72
2022-09-04T00:30:26.457Z,77.58
2022-09-04T00:33:03.052Z,78.20
2022-09-04T00:35:33.093Z,78.49
2022-09-04T00:38:08.296Z,77.62
2022-09-04T00:40:43.519Z,77.85
2022-09-04T00:43:37.592Z,78.98
2022-09-04T00:46:16.365Z,79.19
2022-09-04T00:49:36.550Z,78.54
2022-09-04T00:52:15.204Z,78.12
2022-09-04T00:55:09.673Z,79.38
2022-09-04T00:58:17.042Z,78.99
2022-09-04T01:00:53.969Z,80.00
2022-09-04T01:03:56.692Z,79.60
2022-09-04T01:06:37.216Z,79.02
2022-09-04T01:09:25.536Z,79.25
2022-09-04T01:12:08.422Z,78.63
2022-09-04T01:14:56.475Z,78.70
2022-09-04T01:17:30.603Z,80.75
2022-09-04T01:20:08.934Z,81.19
2022-09-04T01:22:57.833Z,79.33
2022-09-04T01:25:42.533Z,80.34
2022-09-04T01:28:14.986Z,80.91
2022-09-04T01:30:47.346Z,82.12
2022-09-04T01:33:21.801Z,81.29
2022-09-04T01:35:55.347Z,81.32
2022-09-04T01:38:30.262Z,82.45
2022-09-04T01:41:04.398Z,81.39
2022-09-04T01:43:33.069Z,82.11
2022-09-04T01:46:11.033Z,82.23
2022-09-04T01:48:45.372Z,82.46
2022-09-04T01:51:19.097Z,82.33
2022-09-04T01:53:54.839Z,80.75
2022-09-04T01:56:27.070Z,79.51
2022-09-04T01:58:57.913Z,80.47
2022-09-04T02:01:33.034Z,78.62
2022-09-04T02:04:08.030Z,79.34
2022-09-04T02:06:42.564Z,78.89
2022-09-04T02:09:21.641Z,79.65
2022-09-04T02:11:59.953Z,79.73
2022-09-04T02:14:35.767Z,79.93
2022-09-04T02:17:10.678Z,79.45
2022-09-04T02:19:46.729Z,78.39
2022-09-04T02:22:23.146Z,77.76
2022-09-04T02:24:55.618Z,77.53
2022-09-04T02:27:31.520Z,77.17
2022-09-04T02:30:03.345Z,79.18
2022-09-04T02:32:37.752Z,79.15
2022-09-04T02:35:10.993Z,77.91
2022-09-04T02:37:48.627Z,77.90
2022-09-04T02:40:20.188Z,78.47
2022-09-04T02:42:58.085Z,77.87
2022-09-04T02:45:31.074Z,78.27
2022-09-04T02:48:03.978Z,79.30
2022-09-04T02:50:40.296Z,79.67
2022-09-04T02:53:18.312Z,80.80
2022-09-04T02:55:57.656Z,79.76
2022-09-04T02:58:33.777Z,77.33
2022-09-04T03:01:06.498Z,77.14
2022-09-04T03:03:40.674Z,76.98
2022-09-04T03:06:11.843Z,77.28
2022-09-04T03:08:45.464Z,76.67
2022-09-04T03:11:18.037Z,76.52
2022-09-04T03:13:51.999Z,76.60
2022-09-04T03:16:23.731Z,79.06
2022-09-04T03:19:03.125Z,79.59
2022-09-04T03:21:35.325Z,79.91
2022-09-04T03:24:06.823Z,78.80
2022-09-04T03:26:36.624Z,77.21
2022-09-04T03:29:12.669Z,77.73
2022-09-04T03:31:47.061Z,77.25
2022-09-04T03:34:30.042Z,76.65
2022-09-04T03:37:14.211Z,78.22
2022-09-04T03:39:52.192Z,80.12
2022-09-04T03:42:26.998Z,80.70
2022-09-04T03:45:02.998Z,81.11
2022-09-04T03:47:37.175Z,79.42
2022-09-04T03:50:12.101Z,78.19
2022-09-04T03:52:47.393Z,80.88
2022-09-04T03:55:33.498Z,82.09
2022-09-04T03:58:09.014Z,82.92
2022-09-04T04:00:43.118Z,82.43
2022-09-04T04:03:24.641Z,82.56
2022-09-04T04:06:02.829Z,83.21
2022-09-04T04:08:42.309Z,83.35
2022-09-04T04:11:21.150Z,82.51
2022-09-04T04:14:04.983Z,81.74
2022-09-04T04:16:43.347Z,82.01
2022-09-04T04:19:44.990Z,84.78
2022-09-04T04:22:28.494Z,85.33
2022-09-04T04:25:06.742Z,85.89
2022-09-04T04:27:47.939Z,86.05
2022-09-04T04:30:17.667Z,85.25
2022-09-04T04:33:01.415Z,85.56
2022-09-04T04:35:31.356Z,83.19
2022-09-04T04:38:09.753Z,81.90
2022-09-04T04:40:59.993Z,82.00
2022-09-04T04:43:32.542Z,82.73
2022-09-04T04:46:03.940Z,82.46
2022-09-04T04:49:00.724Z,83.08
2022-09-04T04:51:56.793Z,82.35
2022-09-04T04:54:41.538Z,81.60
2022-09-04T04:57:14.563Z,83.39
2022-09-04T04:59:45.298Z,83.55
2022-09-04T05:02:19.244Z,83.33
2022-09-04T05:04:52.427Z,83.38
2022-09-04T05:07:31.171Z,84.06
2022-09-04T05:10:02.746Z,83.53
2022-09-04T05:12:43.881Z,80.48
2022-09-04T05:15:16.452Z,80.54
2022-09-04T05:17:48.370Z,81.01
2022-09-04T05:20:26.259Z,82.34
2022-09-04T05:23:00.977Z,81.93
2022-09-04T05:25:37.925Z,83.36
2022-09-04T05:28:12.478Z,83.65
2022-09-04T05:30:44.957Z,83.59
2022-09-04T05:33:19.003Z,84.24
2022-09-04T05:35:51.295Z,84.45
2022-09-04T05:38:27.371Z,83.28
2022-09-04T05:41:08.361Z,81.14
2022-09-04T05:43:50.496Z,82.53
2022-09-04T05:46:28.613Z,83.75
2022-09-04T05:49:01.937Z,83.91
2022-09-04T05:51:51.442Z,84.87
2022-09-04T05:54:44.638Z,85.38
2022-09-04T05:57:27.332Z,83.84
2022-09-04T06:00:07.521Z,83.79
2022-09-04T06:02:50.533Z,83.82
2022-09-04T06:05:24.822Z,83.56
2022-09-04T06:08:00.148Z,84.02
2022-09-04T06:10:33.877Z,83.42
2022-09-04T06:13:25.306Z,83.49
2022-09-04T06:16:04.497Z,81.89
2022-09-04T06:18:50.281Z,81.56
2022-09-04T06:21:42.945Z,82.47
2022-09-04T06:24:20.860Z,82.22
2022-09-04T06:27:18.580Z,80.51
2022-09-04T06:29:59.573Z,82.38
2022-09-04T06:32:38.500Z,81.30
2022-09-04T06:35:24.855Z,81.91
2022-09-04T06:38:02.963Z,82.15
2022-09-04T06:40:42.578Z,82.70
2022-09-04T06:43:18.129Z,83.15
2022-09-04T06:45:52.699Z,82.74
2022-09-04T06:48:27.326Z,82.91
2022-09-04T06:50:59.821Z,81.53
2022-09-04T06:53:39.002Z,82.06
2022-09-04T06:56:19.366Z,81.97
2022-09-04T06:59:11.349Z,82.52
2022-09-04T07:01:46.668Z,81.90
2022-09-04T07:04:23.476Z,81.72
2022-09-04T07:07:02.399Z,81.52
2022-09-04T07:09:33.740Z,80.69
2022-09-04T07:12:17.930Z,80.92
2022-09-04T07:15:15.061Z,80.77
2022-09-04T07:17:49.402Z,79.78
2022-09-04T07:20:22.964Z,78.12
2022-09-04T07:23:11.113Z,77.76
2022-09-04T07:25:44.460Z,77.16
2022-09-04T07:28:37.256Z,77.55
2022-09-04T07:31:08.964Z,78.17
2022-09-04T07:33:45.670Z,78.99
2022-09-04T07:36:16.801Z,79.37
2022-09-04T07:38:50.903Z,79.29
2022-09-04T07:41:26.595Z,78.50
2022-09-04T07:44:03.432Z,79.71
2022-09-04T07:46:37.370Z,79.63
2022-09-04T07:49:09.627Z,79.70
2022-09-04T07:51:40.879Z,78.61
2022-09-04T07:54:45.025Z,77.96
2022-09-04T07:57:39.304Z,77.25
2022-09-04T08:00:09.953Z,76.93
2022-09-04T08:02:58.987Z,74.54
2022-09-04T08:05:30.682Z,76.19
2022-09-04T08:08:20.383Z,76.49
2022-09-04T08:11:00.762Z,77.14
2022-09-04T08:13:40.793Z,77.47
2022-09-04T08:16:13.150Z,77.79
2022-09-04T08:19:03.429Z,78.51
2022-09-04T08:21:32.544Z,78.30
2022-09-04T08:24:19.232Z,77.77
2022-09-04T08:26:56.847Z,77.57
2022-09-04T08:29:33.902Z,76.96
2022-09-04T08:32:13.783Z,75.04
2022-09-04T08:35:12.984Z,75.10
2022-09-04T08:37:50.815Z,75.61
2022-09-04T08:40:42.754Z,76.38
2022-09-04T08:43:26.325Z,76.58
2022-09-04T08:46:29.909Z,75.92
2022-09-04T08:49:23.981Z,75.22
2022-09-04T08:52:23.493Z,75.62
2022-09-04T08:55:28.638Z,76.23
2022-09-04T08:58:12.944Z,76.37
2022-09-04T09:00:57.793Z,76.43
2022-09-04T09:03:52.782Z,75.68
2022-09-04T09:06:43.005Z,75.86
2022-09-04T09:09:28.784Z,75.88
2022-09-04T09:12:10.496Z,74.77
2022-09-04T09:14:57.686Z,74.20
2022-09-04T09:17:38.409Z,73.78
2022-09-04T09:20:27.760Z,73.32
2022-09-04T09:23:19.565Z,73.27
2022-09-04T09:25:52.037Z,74.25
2022-09-04T09:28:42.001Z,74.13
2022-09-04T09:31:44.225Z,73.23
2022-09-04T09:34:43.256Z,73.38
2022-09-04T09:37:27.834Z,74.00
2022-09-04T09:40:14.253Z,72.39
2022-09-04T09:42:56.866Z,72.44
2022-09-04T09:45:47.712Z,71.92
2022-09-04T09:48:48.332Z,72.18
2022-09-04T09:51:43.756Z,70.96
2022-09-04T09:54:27.187Z,72.93
2022-09-04T09:57:12.196Z,72.01
2022-09-04T10:00:02.420Z,71.54
2022-09-04T10:03:11.509Z,70.50
2022-09-04T10:06:23.396Z,68.64
2022-09-04T10:09:14.247Z,69.12
2022-09-04T10:12:06.888Z,68.18
2022-09-04T10:14:51.972Z,68.27
2022-09-04T10:17:52.174Z,67.67
2022-09-04T10:20:50.725Z,67.47
2022-09-04T10:23:30.557Z,67.55
2022-09-04T10:26:09.110Z,67.67
2022-09-04T10:28:51.639Z,68.62
2022-09-04T10:31:44.459Z,69.20
2022-09-04T10:34:24.071Z,69.29
2022-09-04T10:37:01.586Z,68.75
2022-09-04T10:39:56.440Z,68.18
2022-09-04T10:42:38.631Z,68.21
2022-09-04T10:45:22.154Z,67.61
2022-09-04T10:48:28.913Z,66.97
2022-09-04T10:51:16.657Z,67.72
2022-09-04T10:54:08.135Z,66.84
2022-09-04T10:56:42.290Z,66.99
2022-09-04T10:59:32.890Z,67.20
2022-09-04T11:02:37.177Z,66.67
2022-09-04T11:05:31.310Z,66.86
2022-09-04T11:08:46.331Z,66.43
2022-09-04T11:11:28.016Z,66.78
2022-09-04T11:14:16.619Z,67.09
2022-09-04T11:17:12.140Z,66.33
2022-09-04T11:20:16.193Z,66.49
2022-09-04T11:23:12.293Z,65.43
2022-09-04T11:26:10.016Z,65.22
2022-09-04T11:28:44.334Z,65.19
2022-09-04T11:31:24.824Z,64.94
2022-09-04T11:34:31.429Z,64.25
2022-09-04T11:37:46.857Z,64.67
2022-09-04T11:40:34.376Z,64.42
2022-09-04T11:43:24.437Z,63.86
2022-09-04T11:46:29.048Z,64.08
2022-09-04T11:49:25.449Z,63.05
2022-09-04T11:52:06.862Z,62.78
2022-09-04T11:55:01.199Z,62.51
2022-09-04T11:57:41.137Z,62.66
2022-09-04T12:00:12.435Z,62.38
2022-09-04T12:03:06.406Z,62.25
2022-09-04T12:06:17.760Z,60.43
2022-09-04T12:09:28.212Z,58.87
2022-09-04T12:12:15.121Z,58.43
2022-09-04T12:15:07.280Z,58.58
2022-09-04T12:18:21.272Z,57.84
2022-09-04T12:21:25.582Z,58.76
2022-09-04T12:24:33.950Z,59.02
2022-09-04T12:27:24.322Z,56.47
2022-09-04T12:30:16.232Z,56.27
2022-09-04T12:33:08.685Z,56.89
2022-09-04T12:36:17.626Z,54.81
2022-09-04T12:39:06.747Z,54.46
2022-09-04T12:41:37.078Z,55.26
2022-09-04T12:44:20.667Z,54.32
2022-09-04T12:47:07.419Z,53.18
2022-09-04T12:50:16.020Z,53.39
2022-09-04T12:53:12.571Z,52.81
2022-09-04T12:56:51.748Z,53.85
2022-09-04T12:59:06.806Z,53.20
2022-09-04T13:01:59.736Z,52.19
2022-09-04T13:04:40.890Z,51.84
2022-09-04T13:07:26.938Z,49.88
2022-09-04T13:10:05.191Z,50.09
2022-09-04T13:12:46.348Z,49.80
2022-09-04T13:15:25.383Z,50.07
2022-09-04T13:18:14.154Z,47.89
2022-09-04T13:20:59.305Z,48.41
2022-09-04T13:23:39.656Z,48.72
2022-09-04T13:26:31.601Z,48.41
2022-09-04T13:29:08.432Z,48.33
2022-09-04T13:32:08.197Z,45.77
2022-09-04T13:34:49.812Z,45.51
2022-09-04T13:37:24.303Z,46.31
2022-09-04T13:40:17.650Z,46.51
2022-09-04T13:43:11.730Z,45.52
2022-09-04T13:45:43.109Z,44.65
2022-09-04T13:48:15.607Z,43.97
2022-09-04T13:50:52.455Z,44.76
2022-09-04T13:53:27.992Z,44.34
2022-09-04T13:55:59.349Z,44.92
2022-09-04T13:58:30.640Z,44.83
2022-09-04T14:01:01.648Z,45.28
2022-09-04T14:03:36.287Z,46.13
2022-09-04T14:06:06.029Z,44.91
2022-09-04T14:08:42.397Z,44.01
2022-09-04T14:11:30.186Z,43.11
2022-09-04T14:14:21.319Z,43.91
2022-09-04T14:16:53.305Z,43.16
2022-09-04T14:19:36.256Z,43.16
2022-09-04T14:22:12.560Z,43.28
2022-09-04T14:24:46.113Z,42.01
2022-09-04T14:27:20.512Z,41.75
2022-09-04T14:30:00.340Z,42.27
2022-09-04T14:32:41.133Z,42.24
2022-09-04T14:35:14.424Z,42.26
2022-09-04T14:37:58.331Z,42.06
2022-09-04T14:40:32.003Z,42.63
2022-09-04T14:43:08.619Z,42.87
2022-09-04T14:46:08.796Z,41.98
2022-09-04T14:48:40.641Z,42.30
2022-09-04T14:51:16.521Z,42.12
2022-09-04T14:53:49.036Z,42.42
2022-09-04T14:56:25.245Z,41.49
2022-09-04T14:58:56.488Z,42.13
2022-09-04T15:01:25.768Z,42.06
2022-09-04T15:03:57.436Z,42.01
2022-09-04T15:06:32.807Z,42.30
2022-09-04T15:09:25.534Z,42.90
2022-09-04T15:12:21.117Z,42.40
2022-09-04T15:14:47.721Z,42.11
2022-09-04T15:17:24.318Z,41.73
2022-09-04T15:19:56.122Z,42.62
2022-09-04T15:22:27.418Z,42.23
2022-09-04T15:24:58.528Z,41.73
2022-09-04T15:27:32.809Z,41.63
2022-09-04T15:30:05.812Z,42.57
2022-09-04T15:32:39.704Z,42.42
2022-09-04T15:35:15.331Z,42.43
2022-09-04T15:37:43.948Z,41.98
2022-09-04T15:40:16.222Z,42.16
2022-09-04T15:42:47.274Z,43.17
2022-09-04T15:45:22.686Z,43.18
2022-09-04T15:48:05.207Z,42.89
2022-09-04T15:50:36.287Z,42.76
2022-09-04T15:53:14.329Z,41.60
2022-09-04T15:55:44.388Z,42.05
2022-09-04T15:58:16.809Z,40.67
2022-09-04T16:01:08.158Z,40.95
2022-09-04T16:03:44.052Z,41.08
2022-09-04T16:06:19.290Z,41.10
2022-09-04T16:08:53.171Z,41.09
2022-09-04T16:11:26.250Z,41.59
2022-09-04T16:13:58.082Z,41.83
2022-09-04T16:16:30.171Z,41.67
2022-09-04T16:19:18.044Z,41.04
2022-09-04T16:21:52.350Z,41.16
2022-09-04T16:24:22.797Z,41.61
2022-09-04T16:26:52.243Z,41.06
2022-09-04T16:29:28.367Z,41.05
2022-09-04T16:31:57.647Z,41.06
2022-09-04T16:34:27.338Z,41.21
2022-09-04T16:37:01.630Z,41.98
2022-09-04T16:39:34.098Z,42.19
2022-09-04T16:42:13.220Z,42.13
2022-09-04T16:44:45.305Z,42.62
2022-09-04T16:47:18.563Z,43.01
2022-09-04T16:49:51.913Z,43.26
2022-09-04T16:53:12.705Z,42.01
2022-09-04T16:55:45.881Z,42.38
2022-09-04T16:58:21.258Z,42.26
2022-09-04T17:01:17.929Z,42.81
2022-09-04T17:04:20.463Z,43.15
2022-09-04T17:06:57.413Z,42.42
2022-09-04T17:09:29.554Z,43.38
2022-09-04T17:12:01.610Z,43.65
2022-09-04T17:14:34.893Z,43.87
2022-09-04T17:17:12.519Z,44.15
2022-09-04T17:20:06.384Z,44.69
2022-09-04T17:27:21.955Z,44.38
2022-09-04T17:29:05.206Z,45.29
2022-09-04T17:29:29.647Z,46.05
2022-09-04T17:31:19.044Z,45.80
2022-09-04T17:40:42.425Z,45.67
2022-09-04T17:40:47.087Z,47.21
2022-09-04T17:40:57.402Z,46.07
2022-09-04T17:42:25.946Z,47.31
2022-09-04T17:44:57.449Z,47.81
2022-09-04T17:47:30.036Z,47.87
2022-09-04T17:49:59.433Z,48.67
2022-09-04T17:52:28.948Z,48.94
2022-09-04T17:55:04.832Z,49.59
2022-09-04T17:57:50.574Z,49.83
2022-09-04T18:00:20.484Z,49.89
2022-09-04T18:02:54.120Z,50.10
2022-09-04T18:05:25.235Z,50.71
2022-09-04T18:08:09.387Z,51.05
2022-09-04T18:10:47.771Z,51.54
2022-09-04T18:13:36.931Z,51.29
2022-09-04T18:16:19.521Z,51.53
2022-09-04T18:18:51.494Z,51.64
2022-09-04T18:21:24.668Z,52.55
2022-09-04T18:23:57.575Z,52.67
2022-09-04T18:26:38.485Z,53.15
2022-09-04T18:31:37.087Z,53.48
2022-09-04T18:37:10.646Z,53.62
2022-09-04T18:37:24.739Z,54.22
2022-09-04T18:38:10.681Z,54.68
2022-09-04T18:42:54.907Z,55.50
2022-09-04T18:50:28.032Z,55.55
2022-09-04T18:50:36.450Z,56.36
2022-09-04T18:50:52.397Z,56.39
2022-09-04T18:52:04.651Z,56.59
2022-09-04T18:54:39.585Z,56.91
2022-09-04T18:57:23.750Z,57.09
2022-09-04T18:59:54.940Z,57.76
2022-09-04T19:02:52.958Z,57.79
2022-09-04T19:05:22.405Z,58.23
2022-09-04T19:07:54.209Z,58.58
2022-09-04T19:10:25.646Z,58.66
2022-09-04T19:13:03.978Z,59.10
2022-09-04T19:15:37.746Z,59.53
2022-09-04T19:18:10.889Z,59.12
2022-09-04T19:20:47.269Z,59.54
2022-09-04T19:23:23.001Z,59.78
2022-09-04T19:25:54.997Z,60.30
2022-09-04T19:28:27.183Z,60.22
2022-09-04T19:30:58.199Z,60.15
2022-09-04T19:33:32.740Z,61.07
2022-09-04T19:36:03.597Z,61.06
2022-09-04T19:45:56.270Z,61.23
2022-09-04T19:45:56.491Z,61.69
2022-09-04T19:46:26.447Z,61.86
2022-09-04T19:47:28.649Z,61.97
2022-09-04T19:53:17.484Z,62.49
2022-09-04T19:53:32.455Z,62.38
2022-09-04T19:55:46.744Z,62.83
2022-09-04T19:58:18.774Z,63.16
2022-09-04T20:00:49.039Z,63.20
2022-09-04T20:03:29.802Z,63.31
2022-09-04T20:06:20.755Z,63.35
2022-09-04T20:08:52.046Z,63.30
2022-09-04T20:11:27.221Z,63.05
2022-09-04T20:14:14.414Z,63.58
2022-09-04T20:16:48.565Z,64.05
2022-09-04T20:19:24.491Z,63.98
2022-09-04T20:21:59.165Z,64.02
2022-09-04T20:24:34.060Z,64.10
2022-09-04T20:27:07.704Z,64.29
2022-09-04T20:29:39.771Z,64.59
2022-09-04T20:32:11.858Z,64.53
2022-09-04T20:34:44.977Z,65.87
2022-09-04T20:37:29.709Z,66.02
2022-09-04T20:40:05.272Z,65.50
2022-09-04T20:42:38.428Z,65.70
2022-09-04T20:46:58.472Z,65.75
2022-09-04T20:52:51.379Z,65.89
2022-09-04T20:52:51.958Z,65.47
2022-09-04T20:53:55.930Z,65.77
2022-09-04T20:57:37.397Z,65.86
2022-09-04T21:03:07.588Z,65.97
2022-09-04T21:03:19.488Z,66.49
2022-09-04T21:05:32.528Z,67.18
2022-09-04T21:08:06.504Z,67.27
2022-09-04T21:10:37.192Z,67.02
2022-09-04T21:13:13.914Z,67.09
2022-09-04T21:15:53.836Z,67.18
2022-09-04T21:18:40.682Z,67.25
2022-09-04T21:21:22.140Z,67.10
2022-09-04T21:24:12.584Z,67.17
2022-09-04T21:26:51.388Z,67.45
2022-09-04T21:29:29.214Z,67.85
2022-09-04T21:32:24.226Z,67.92
2022-09-04T21:35:02.954Z,67.73
2022-09-04T21:37:41.718Z,67.83
2022-09-04T21:40:51.141Z,67.91
2022-09-04T21:43:49.948Z,67.95
2022-09-04T21:46:44.308Z,68.01
2022-09-04T21:49:37.029Z,68.79
2022-09-04T21:52:24.545Z,70.33
2022-09-04T21:58:31.298Z,70.43
2022-09-04T22:02:38.113Z,69.97
2022-09-04T22:02:41.906Z,69.38
2022-09-04T22:04:04.170Z,69.12
2022-09-04T22:07:08.376Z,69.21
2022-09-04T22:13:27.333Z,69.33
2022-09-04T22:13:41.420Z,69.16
2022-09-04T22:15:29.233Z,69.00
2022-09-04T22:18:13.725Z,69.09
2022-09-04T22:20:52.959Z,69.68
2022-09-04T22:23:45.447Z,69.45
2022-09-04T22:26:31.811Z,69.33
2022-09-04T22:29:39.460Z,69.46
2022-09-04T22:32:39.232Z,70.31
2022-09-04T22:35:35.585Z,70.22
2022-09-04T22:38:43.078Z,70.14
2022-09-04T22:41:27.262Z,69.90
2022-09-04T22:44:00.927Z,70.61
2022-09-04T22:46:46.742Z,70.21
2022-09-04T22:49:43.453Z,70.27
2022-09-04T22:52:30.101Z,70.09
2022-09-04T22:55:29.275Z,70.74
2022-09-04T22:58:26.848Z,70.93
2022-09-04T23:01:06.769Z,71.69
2022-09-04T23:03:51.884Z,72.22
2022-09-04T23:12:42.768Z,72.39
2022-09-04T23:13:46.784Z,72.44
2022-09-04T23:13:57.713Z,73.19
2022-09-04T23:16:26.274Z,74.19
2022-09-04T23:22:47.842Z,73.59
2022-09-04T23:26:36.684Z,72.25
2022-09-04T23:26:43.771Z,72.29
2022-09-04T23:28:27.202Z,73.40
2022-09-04T23:31:08.824Z,74.42
2022-09-04T23:33:56.552Z,74.77
2022-09-04T23:36:37.466Z,73.54
2022-09-04T23:39:27.248Z,73.92
2022-09-04T23:42:07.967Z,73.77
2022-09-04T23:44:57.888Z,74.10
2022-09-04T23:48:02.863Z,73.76
2022-09-04T23:50:36.076Z,74.46
2022-09-04T23:53:12.003Z,74.00
2022-09-04T23:55:54.046Z,73.77
2022-09-04T23:58:52.237Z,73.57
